sensor_id;sensor_type;location;lat;lon;timestamp;temperature;humidity
32470;DHT22;18925;48.356;10.864;2022-09-12T00:00:19;12.10;99.90
32470;DHT22;18925;48.356;10.864;2022-09-12T00:01:01;12.10;99.90
32470;DHT22;18925;48.356;10.864;2022-09-12T00:01:31;12.00;99.90
32470;DHT22;18925;48.356;10.864;2022-09-12T00:02:02;12.00;99.90
32470;DHT22;18925;48.356;10.864;2022-09-12T00:02:33;12.00;99.90
32470;DHT22;18925;48.356;10.864;2022-09-12T00:03:04;12.00;99.90
32470;DHT22;18925;48.356;10.864;2022-09-12T00:03:35;12.00;99.90
32470;DHT22;18925;48.356;10.864;2022-09-12T00:04:05;12.00;99.90
32470;DHT22;18925;48.356;10.864;2022-09-12T00:04:36;12.00;99.90
32470;DHT22;18925;48.356;10.864;2022-09-12T00:05:07;12.10;99.90
32470;DHT22;18925;48.356;10.864;2022-09-12T00:05:43;12.00;99.90
32470;DHT22;18925;48.356;10.864;2022-09-12T00:06:18;12.00;99.90
32470;DHT22;18925;48.356;10.864;2022-09-12T00:06:49;12.00;99.90
32470;DHT22;18925;48.356;10.864;2022-09-12T00:07:20;12.00;99.90
32470;DHT22;18925;48.356;10.864;2022-09-12T00:07:50;12.00;99.90
32470;DHT22;18925;48.356;10.864;2022-09-12T00:08:21;12.00;99.90
32470;DHT22;18925;48.356;10.864;2022-09-12T00:08:55;12.00;99.90
32470;DHT22;18925;48.356;10.864;2022-09-12T00:09:26;12.00;99.90
32470;DHT22;18925;48.356;10.864;2022-09-12T00:09:57;12.00;99.90
32470;DHT22;18925;48.356;10.864;2022-09-12T00:10:27;12.00;99.90
32470;DHT22;18925;48.356;10.864;2022-09-12T00:10:58;12.00;99.90
32470;DHT22;18925;48.356;10.864;2022-09-12T00:11:34;12.00;99.90
32470;DHT22;18925;48.356;10.864;2022-09-12T00:12:05;12.00;99.90
32470;DHT22;18925;48.356;10.864;2022-09-12T00:12:36;12.00;99.90
32470;DHT22;18925;48.356;10.864;2022-09-12T00:13:06;12.00;99.90
32470;DHT22;18925;48.356;10.864;2022-09-12T00:13:38;12.00;99.90
32470;DHT22;18925;48.356;10.864;2022-09-12T00:14:09;12.00;99.90
32470;DHT22;18925;48.356;10.864;2022-09-12T00:14:40;12.00;99.90
32470;DHT22;18925;48.356;10.864;2022-09-12T00:15:11;11.90;99.90
32470;DHT22;18925;48.356;10.864;2022-09-12T00:15:42;11.90;99.90
32470;DHT22;18925;48.356;10.864;2022-09-12T00:16:17;12.00;99.90
32470;DHT22;18925;48.356;10.864;2022-09-12T00:16:48;12.00;99.90
32470;DHT22;18925;48.356;10.864;2022-09-12T00:17:18;11.90;99.90
32470;DHT22;18925;48.356;10.864;2022-09-12T00:17:49;11.90;99.90
32470;DHT22;18925;48.356;10.864;2022-09-12T00:18:20;11.90;99.90
32470;DHT22;18925;48.356;10.864;2022-09-12T00:18:50;11.90;99.90
32470;DHT22;18925;48.356;10.864;2022-09-12T00:19:21;11.90;99.90
32470;DHT22;18925;48.356;10.864;2022-09-12T00:19:52;11.80;99.90
32470;DHT22;18925;48.356;10.864;2022-09-12T00:20:23;11.80;99.90
32470;DHT22;18925;48.356;10.864;2022-09-12T00:20:53;11.80;99.90
32470;DHT22;18925;48.356;10.864;2022-09-12T00:21:24;11.80;99.90
32470;DHT22;18925;48.356;10.864;2022-09-12T00:21:55;11.80;99.90
32470;DHT22;18925;48.356;10.864;2022-09-12T00:22:25;11.80;99.90
32470;DHT22;18925;48.356;10.864;2022-09-12T00:22:56;11.80;99.90
32470;DHT22;18925;48.356;10.864;2022-09-12T00:23:26;11.80;99.90
32470;DHT22;18925;48.356;10.864;2022-09-12T00:23:57;11.90;99.90
32470;DHT22;18925;48.356;10.864;2022-09-12T00:24:27;11.80;99.90
32470;DHT22;18925;48.356;10.864;2022-09-12T00:24:58;11.80;99.90
32470;DHT22;18925;48.356;10.864;2022-09-12T00:25:28;11.80;99.90
32470;DHT22;18925;48.356;10.864;2022-09-12T00:26:02;11.80;99.90
32470;DHT22;18925;48.356;10.864;2022-09-12T00:26:33;11.80;99.90
32470;DHT22;18925;48.356;10.864;2022-09-12T00:27:04;11.80;99.90
32470;DHT22;18925;48.356;10.864;2022-09-12T00:27:34;11.80;99.90
32470;DHT22;18925;48.356;10.864;2022-09-12T00:28:05;11.80;99.90
32470;DHT22;18925;48.356;10.864;2022-09-12T00:28:36;11.70;99.90
32470;DHT22;18925;48.356;10.864;2022-09-12T00:29:07;11.70;99.90
32470;DHT22;18925;48.356;10.864;2022-09-12T00:29:39;11.70;99.90
32470;DHT22;18925;48.356;10.864;2022-09-12T00:30:10;11.70;99.90
32470;DHT22;18925;48.356;10.864;2022-09-12T00:30:41;11.70;99.90
32470;DHT22;18925;48.356;10.864;2022-09-12T00:31:13;11.70;99.90
32470;DHT22;18925;48.356;10.864;2022-09-12T00:31:44;11.70;99.90
32470;DHT22;18925;48.356;10.864;2022-09-12T00:32:15;11.70;99.90
32470;DHT22;18925;48.356;10.864;2022-09-12T00:32:45;11.70;99.90
32470;DHT22;18925;48.356;10.864;2022-09-12T00:33:16;11.70;99.90
32470;DHT22;18925;48.356;10.864;2022-09-12T00:33:47;11.60;99.90
32470;DHT22;18925;48.356;10.864;2022-09-12T00:34:18;11.60;99.90
32470;DHT22;18925;48.356;10.864;2022-09-12T00:34:48;11.60;99.90
32470;DHT22;18925;48.356;10.864;2022-09-12T00:35:19;11.60;99.90
32470;DHT22;18925;48.356;10.864;2022-09-12T00:35:50;11.70;99.90
32470;DHT22;18925;48.356;10.864;2022-09-12T00:36:22;11.70;99.90
32470;DHT22;18925;48.356;10.864;2022-09-12T00:36:53;11.60;99.90
32470;DHT22;18925;48.356;10.864;2022-09-12T00:37:24;11.70;99.90
32470;DHT22;18925;48.356;10.864;2022-09-12T00:37:54;11.60;99.90
32470;DHT22;18925;48.356;10.864;2022-09-12T00:38:25;11.60;99.90
32470;DHT22;18925;48.356;10.864;2022-09-12T00:38:55;11.60;99.90
32470;DHT22;18925;48.356;10.864;2022-09-12T00:39:26;11.60;99.90
32470;DHT22;18925;48.356;10.864;2022-09-12T00:39:56;11.60;99.90
32470;DHT22;18925;48.356;10.864;2022-09-12T00:40:27;11.60;99.90
32470;DHT22;18925;48.356;10.864;2022-09-12T00:40:58;11.50;99.90
32470;DHT22;18925;48.356;10.864;2022-09-12T00:41:29;11.50;99.90
32470;DHT22;18925;48.356;10.864;2022-09-12T00:42:00;11.60;99.90
32470;DHT22;18925;48.356;10.864;2022-09-12T00:42:31;11.50;99.90
32470;DHT22;18925;48.356;10.864;2022-09-12T00:43:01;11.50;99.90
32470;DHT22;18925;48.356;10.864;2022-09-12T00:43:39;11.50;99.90
32470;DHT22;18925;48.356;10.864;2022-09-12T00:44:52;11.50;99.90
32470;DHT22;18925;48.356;10.864;2022-09-12T00:45:23;11.40;99.90
32470;DHT22;18925;48.356;10.864;2022-09-12T00:45:56;11.40;99.90
32470;DHT22;18925;48.356;10.864;2022-09-12T00:47:36;11.40;99.90
32470;DHT22;18925;48.356;10.864;2022-09-12T00:48:01;11.40;99.90
32470;DHT22;18925;48.356;10.864;2022-09-12T00:49:09;11.50;99.90
32470;DHT22;18925;48.356;10.864;2022-09-12T00:49:34;11.40;99.90
32470;DHT22;18925;48.356;10.864;2022-09-12T00:50:08;11.40;99.90
32470;DHT22;18925;48.356;10.864;2022-09-12T00:50:40;11.40;99.90
32470;DHT22;18925;48.356;10.864;2022-09-12T00:51:11;11.40;99.90
32470;DHT22;18925;48.356;10.864;2022-09-12T00:51:44;11.30;99.90
32470;DHT22;18925;48.356;10.864;2022-09-12T00:52:34;11.30;99.90
32470;DHT22;18925;48.356;10.864;2022-09-12T00:53:08;11.30;99.90
32470;DHT22;18925;48.356;10.864;2022-09-12T00:53:40;11.30;99.90
32470;DHT22;18925;48.356;10.864;2022-09-12T00:54:12;11.40;99.90
32470;DHT22;18925;48.356;10.864;2022-09-12T00:54:46;11.40;99.90
32470;DHT22;18925;48.356;10.864;2022-09-12T00:55:18;11.40;99.90
32470;DHT22;18925;48.356;10.864;2022-09-12T00:55:50;11.40;99.90
32470;DHT22;18925;48.356;10.864;2022-09-12T00:56:21;11.30;99.90
32470;DHT22;18925;48.356;10.864;2022-09-12T00:56:53;11.30;99.90
32470;DHT22;18925;48.356;10.864;2022-09-12T00:57:27;11.40;99.90
32470;DHT22;18925;48.356;10.864;2022-09-12T00:58:00;11.40;99.90
32470;DHT22;18925;48.356;10.864;2022-09-12T00:59:33;11.40;99.90
32470;DHT22;18925;48.356;10.864;2022-09-12T00:59:33;11.40;99.90
32470;DHT22;18925;48.356;10.864;2022-09-12T01:00:10;11.40;99.90
32470;DHT22;18925;48.356;10.864;2022-09-12T01:00:45;11.40;99.90
32470;DHT22;18925;48.356;10.864;2022-09-12T01:01:16;11.40;99.90
32470;DHT22;18925;48.356;10.864;2022-09-12T01:01:47;11.40;99.90
32470;DHT22;18925;48.356;10.864;2022-09-12T01:02:19;11.40;99.90
32470;DHT22;18925;48.356;10.864;2022-09-12T01:03:10;11.40;99.90
32470;DHT22;18925;48.356;10.864;2022-09-12T01:03:42;11.40;99.90
32470;DHT22;18925;48.356;10.864;2022-09-12T01:04:13;11.40;99.90
32470;DHT22;18925;48.356;10.864;2022-09-12T01:04:44;11.40;99.90
32470;DHT22;18925;48.356;10.864;2022-09-12T01:05:14;11.40;99.90
32470;DHT22;18925;48.356;10.864;2022-09-12T01:06:02;11.40;99.90
32470;DHT22;18925;48.356;10.864;2022-09-12T01:06:39;11.50;99.90
32470;DHT22;18925;48.356;10.864;2022-09-12T01:07:09;11.50;99.90
32470;DHT22;18925;48.356;10.864;2022-09-12T01:07:40;11.50;99.90
32470;DHT22;18925;48.356;10.864;2022-09-12T01:08:12;11.50;99.90
32470;DHT22;18925;48.356;10.864;2022-09-12T01:08:43;11.50;99.90
32470;DHT22;18925;48.356;10.864;2022-09-12T01:09:15;11.50;99.90
32470;DHT22;18925;48.356;10.864;2022-09-12T01:09:46;11.50;99.90
32470;DHT22;18925;48.356;10.864;2022-09-12T01:10:17;11.50;99.90
32470;DHT22;18925;48.356;10.864;2022-09-12T01:10:48;11.50;99.90
32470;DHT22;18925;48.356;10.864;2022-09-12T01:11:19;11.50;99.90
32470;DHT22;18925;48.356;10.864;2022-09-12T01:11:50;11.50;99.90
32470;DHT22;18925;48.356;10.864;2022-09-12T01:12:22;11.50;99.90
32470;DHT22;18925;48.356;10.864;2022-09-12T01:12:53;11.50;99.90
32470;DHT22;18925;48.356;10.864;2022-09-12T01:13:23;11.40;99.90
32470;DHT22;18925;48.356;10.864;2022-09-12T01:13:54;11.40;99.90
32470;DHT22;18925;48.356;10.864;2022-09-12T01:14:25;11.30;99.90
32470;DHT22;18925;48.356;10.864;2022-09-12T01:14:56;11.30;99.90
32470;DHT22;18925;48.356;10.864;2022-09-12T01:15:26;11.30;99.90
32470;DHT22;18925;48.356;10.864;2022-09-12T01:15:57;11.30;99.90
32470;DHT22;18925;48.356;10.864;2022-09-12T01:16:28;11.20;99.90
32470;DHT22;18925;48.356;10.864;2022-09-12T01:16:59;11.20;99.90
32470;DHT22;18925;48.356;10.864;2022-09-12T01:18:34;11.20;99.90
32470;DHT22;18925;48.356;10.864;2022-09-12T01:19:24;11.20;99.90
32470;DHT22;18925;48.356;10.864;2022-09-12T01:20:24;11.20;99.90
32470;DHT22;18925;48.356;10.864;2022-09-12T01:21:06;11.10;99.90
32470;DHT22;18925;48.356;10.864;2022-09-12T01:22:35;11.00;99.90
32470;DHT22;18925;48.356;10.864;2022-09-12T01:24:28;11.00;99.90
32470;DHT22;18925;48.356;10.864;2022-09-12T01:29:01;11.00;99.90
32470;DHT22;18925;48.356;10.864;2022-09-12T01:32:14;11.00;99.90
32470;DHT22;18925;48.356;10.864;2022-09-12T01:34:46;11.00;99.90
32470;DHT22;18925;48.356;10.864;2022-09-12T01:35:20;10.90;99.90
32470;DHT22;18925;48.356;10.864;2022-09-12T01:35:57;10.90;99.90
32470;DHT22;18925;48.356;10.864;2022-09-12T01:37:36;10.90;99.90
32470;DHT22;18925;48.356;10.864;2022-09-12T01:38:44;10.90;99.90
32470;DHT22;18925;48.356;10.864;2022-09-12T01:41:42;10.90;99.90
32470;DHT22;18925;48.356;10.864;2022-09-12T01:44:15;10.90;99.90
32470;DHT22;18925;48.356;10.864;2022-09-12T01:45:24;10.90;99.90
32470;DHT22;18925;48.356;10.864;2022-09-12T01:45:59;10.90;99.90
32470;DHT22;18925;48.356;10.864;2022-09-12T01:47:48;10.90;99.90
32470;DHT22;18925;48.356;10.864;2022-09-12T01:48:31;10.90;99.90
32470;DHT22;18925;48.356;10.864;2022-09-12T01:49:13;10.90;99.90
32470;DHT22;18925;48.356;10.864;2022-09-12T01:49:56;10.90;99.90
32470;DHT22;18925;48.356;10.864;2022-09-12T01:50:29;10.90;99.90
32470;DHT22;18925;48.356;10.864;2022-09-12T01:52:25;10.80;99.90
32470;DHT22;18925;48.356;10.864;2022-09-12T01:53:04;10.80;99.90
32470;DHT22;18925;48.356;10.864;2022-09-12T01:53:38;10.90;99.90
32470;DHT22;18925;48.356;10.864;2022-09-12T01:54:12;10.90;99.90
32470;DHT22;18925;48.356;10.864;2022-09-12T01:54:49;10.90;99.90
32470;DHT22;18925;48.356;10.864;2022-09-12T01:56:22;10.90;99.90
32470;DHT22;18925;48.356;10.864;2022-09-12T01:56:55;10.90;99.90
32470;DHT22;18925;48.356;10.864;2022-09-12T01:57:30;10.90;99.90
32470;DHT22;18925;48.356;10.864;2022-09-12T01:58:11;10.90;99.90
32470;DHT22;18925;48.356;10.864;2022-09-12T01:58:49;10.90;99.90
32470;DHT22;18925;48.356;10.864;2022-09-12T01:59:33;10.90;99.90
32470;DHT22;18925;48.356;10.864;2022-09-12T02:00:06;10.90;99.90
32470;DHT22;18925;48.356;10.864;2022-09-12T02:00:57;10.90;99.90
32470;DHT22;18925;48.356;10.864;2022-09-12T02:01:30;10.90;99.90
32470;DHT22;18925;48.356;10.864;2022-09-12T02:02:06;10.90;99.90
32470;DHT22;18925;48.356;10.864;2022-09-12T02:02:39;10.90;99.90
32470;DHT22;18925;48.356;10.864;2022-09-12T02:03:13;10.90;99.90
32470;DHT22;18925;48.356;10.864;2022-09-12T02:04:18;10.90;99.90
32470;DHT22;18925;48.356;10.864;2022-09-12T02:04:55;10.90;99.90
32470;DHT22;18925;48.356;10.864;2022-09-12T02:05:31;10.90;99.90
32470;DHT22;18925;48.356;10.864;2022-09-12T02:06:05;11.00;99.90
32470;DHT22;18925;48.356;10.864;2022-09-12T02:06:39;11.00;99.90
32470;DHT22;18925;48.356;10.864;2022-09-12T02:07:14;11.00;99.90
32470;DHT22;18925;48.356;10.864;2022-09-12T02:07:50;11.00;99.90
32470;DHT22;18925;48.356;10.864;2022-09-12T02:08:30;11.00;99.90
32470;DHT22;18925;48.356;10.864;2022-09-12T02:09:04;11.00;99.90
32470;DHT22;18925;48.356;10.864;2022-09-12T02:09:39;10.90;99.90
32470;DHT22;18925;48.356;10.864;2022-09-12T02:10:22;10.90;99.90
32470;DHT22;18925;48.356;10.864;2022-09-12T02:11:01;10.90;99.90
32470;DHT22;18925;48.356;10.864;2022-09-12T02:11:33;10.80;99.90
32470;DHT22;18925;48.356;10.864;2022-09-12T02:12:05;10.80;99.90
32470;DHT22;18925;48.356;10.864;2022-09-12T02:12:39;10.80;99.90
32470;DHT22;18925;48.356;10.864;2022-09-12T02:13:15;10.80;99.90
32470;DHT22;18925;48.356;10.864;2022-09-12T02:14:00;10.80;99.90
32470;DHT22;18925;48.356;10.864;2022-09-12T02:14:35;10.80;99.90
32470;DHT22;18925;48.356;10.864;2022-09-12T02:15:07;10.80;99.90
32470;DHT22;18925;48.356;10.864;2022-09-12T02:16:21;10.80;99.90
32470;DHT22;18925;48.356;10.864;2022-09-12T02:16:42;10.80;99.90
32470;DHT22;18925;48.356;10.864;2022-09-12T02:17:18;10.80;99.90
32470;DHT22;18925;48.356;10.864;2022-09-12T02:17:50;10.80;99.90
32470;DHT22;18925;48.356;10.864;2022-09-12T02:18:21;10.70;99.90
32470;DHT22;18925;48.356;10.864;2022-09-12T02:18:54;10.70;99.90
32470;DHT22;18925;48.356;10.864;2022-09-12T02:19:29;10.70;99.90
32470;DHT22;18925;48.356;10.864;2022-09-12T02:20:02;10.70;99.90
32470;DHT22;18925;48.356;10.864;2022-09-12T02:20:35;10.70;99.90
32470;DHT22;18925;48.356;10.864;2022-09-12T02:21:07;10.60;99.90
32470;DHT22;18925;48.356;10.864;2022-09-12T02:21:38;10.70;99.90
32470;DHT22;18925;48.356;10.864;2022-09-12T02:22:13;10.70;99.90
32470;DHT22;18925;48.356;10.864;2022-09-12T02:22:44;10.70;99.90
32470;DHT22;18925;48.356;10.864;2022-09-12T02:23:20;10.70;99.90
32470;DHT22;18925;48.356;10.864;2022-09-12T02:23:56;10.70;99.90
32470;DHT22;18925;48.356;10.864;2022-09-12T02:24:28;10.80;99.90
32470;DHT22;18925;48.356;10.864;2022-09-12T02:25:01;10.80;99.90
32470;DHT22;18925;48.356;10.864;2022-09-12T02:25:32;10.80;99.90
32470;DHT22;18925;48.356;10.864;2022-09-12T02:26:08;10.80;99.90
32470;DHT22;18925;48.356;10.864;2022-09-12T02:26:43;10.80;99.90
32470;DHT22;18925;48.356;10.864;2022-09-12T02:27:20;10.80;99.90
32470;DHT22;18925;48.356;10.864;2022-09-12T02:28:01;10.80;99.90
32470;DHT22;18925;48.356;10.864;2022-09-12T02:28:35;10.70;99.90
32470;DHT22;18925;48.356;10.864;2022-09-12T02:29:07;10.70;99.90
32470;DHT22;18925;48.356;10.864;2022-09-12T02:29:37;10.70;99.90
32470;DHT22;18925;48.356;10.864;2022-09-12T02:30:08;10.60;99.90
32470;DHT22;18925;48.356;10.864;2022-09-12T02:30:44;10.60;99.90
32470;DHT22;18925;48.356;10.864;2022-09-12T02:31:32;10.60;99.90
32470;DHT22;18925;48.356;10.864;2022-09-12T02:33:05;10.60;99.90
32470;DHT22;18925;48.356;10.864;2022-09-12T02:33:06;10.50;99.90
32470;DHT22;18925;48.356;10.864;2022-09-12T02:34:36;10.50;99.90
32470;DHT22;18925;48.356;10.864;2022-09-12T02:35:28;10.50;99.90
32470;DHT22;18925;48.356;10.864;2022-09-12T02:36:16;10.40;99.90
32470;DHT22;18925;48.356;10.864;2022-09-12T02:36:58;10.40;99.90
32470;DHT22;18925;48.356;10.864;2022-09-12T02:37:39;10.40;99.90
32470;DHT22;18925;48.356;10.864;2022-09-12T02:38:13;10.40;99.90
32470;DHT22;18925;48.356;10.864;2022-09-12T02:38:46;10.40;99.90
32470;DHT22;18925;48.356;10.864;2022-09-12T02:39:17;10.40;99.90
32470;DHT22;18925;48.356;10.864;2022-09-12T02:39:51;10.40;99.90
32470;DHT22;18925;48.356;10.864;2022-09-12T02:40:23;10.30;99.90
32470;DHT22;18925;48.356;10.864;2022-09-12T02:40:54;10.30;99.90
32470;DHT22;18925;48.356;10.864;2022-09-12T02:41:25;10.30;99.90
32470;DHT22;18925;48.356;10.864;2022-09-12T02:41:57;10.30;99.90
32470;DHT22;18925;48.356;10.864;2022-09-12T02:42:28;10.30;99.90
32470;DHT22;18925;48.356;10.864;2022-09-12T02:42:59;10.30;99.90
32470;DHT22;18925;48.356;10.864;2022-09-12T02:43:30;10.30;99.90
32470;DHT22;18925;48.356;10.864;2022-09-12T02:44:00;10.30;99.90
32470;DHT22;18925;48.356;10.864;2022-09-12T02:44:31;10.30;99.90
32470;DHT22;18925;48.356;10.864;2022-09-12T02:45:02;10.40;99.90
32470;DHT22;18925;48.356;10.864;2022-09-12T02:45:33;10.40;99.90
32470;DHT22;18925;48.356;10.864;2022-09-12T02:46:07;10.40;99.90
32470;DHT22;18925;48.356;10.864;2022-09-12T02:46:43;10.40;99.90
32470;DHT22;18925;48.356;10.864;2022-09-12T02:47:17;10.40;99.90
32470;DHT22;18925;48.356;10.864;2022-09-12T02:47:52;10.50;99.90
32470;DHT22;18925;48.356;10.864;2022-09-12T02:48:28;10.50;99.90
32470;DHT22;18925;48.356;10.864;2022-09-12T02:48:59;10.50;99.90
32470;DHT22;18925;48.356;10.864;2022-09-12T02:49:30;10.50;99.90
32470;DHT22;18925;48.356;10.864;2022-09-12T02:50:01;10.40;99.90
32470;DHT22;18925;48.356;10.864;2022-09-12T02:50:31;10.40;99.90
32470;DHT22;18925;48.356;10.864;2022-09-12T02:51:02;10.40;99.90
32470;DHT22;18925;48.356;10.864;2022-09-12T02:51:33;10.40;99.90
32470;DHT22;18925;48.356;10.864;2022-09-12T02:52:03;10.40;99.90
32470;DHT22;18925;48.356;10.864;2022-09-12T02:52:34;10.40;99.90
32470;DHT22;18925;48.356;10.864;2022-09-12T02:53:06;10.40;99.90
32470;DHT22;18925;48.356;10.864;2022-09-12T02:53:37;10.40;99.90
32470;DHT22;18925;48.356;10.864;2022-09-12T02:54:08;10.30;99.90
32470;DHT22;18925;48.356;10.864;2022-09-12T02:54:39;10.40;99.90
32470;DHT22;18925;48.356;10.864;2022-09-12T02:55:10;10.30;99.90
32470;DHT22;18925;48.356;10.864;2022-09-12T02:55:41;10.40;99.90
32470;DHT22;18925;48.356;10.864;2022-09-12T02:56:14;10.30;99.90
32470;DHT22;18925;48.356;10.864;2022-09-12T02:56:46;10.30;99.90
32470;DHT22;18925;48.356;10.864;2022-09-12T02:57:18;10.30;99.90
32470;DHT22;18925;48.356;10.864;2022-09-12T02:57:48;10.30;99.90
32470;DHT22;18925;48.356;10.864;2022-09-12T02:58:20;10.30;99.90
32470;DHT22;18925;48.356;10.864;2022-09-12T02:58:51;10.30;99.90
32470;DHT22;18925;48.356;10.864;2022-09-12T02:59:23;10.30;99.90
32470;DHT22;18925;48.356;10.864;2022-09-12T02:59:54;10.30;99.90
32470;DHT22;18925;48.356;10.864;2022-09-12T03:00:26;10.30;99.90
32470;DHT22;18925;48.356;10.864;2022-09-12T03:01:39;10.30;99.90
32470;DHT22;18925;48.356;10.864;2022-09-12T03:04:47;10.30;99.90
32470;DHT22;18925;48.356;10.864;2022-09-12T03:05:25;10.30;99.90
32470;DHT22;18925;48.356;10.864;2022-09-12T03:05:56;10.20;99.90
32470;DHT22;18925;48.356;10.864;2022-09-12T03:06:36;10.20;99.90
32470;DHT22;18925;48.356;10.864;2022-09-12T03:07:13;10.20;99.90
32470;DHT22;18925;48.356;10.864;2022-09-12T03:08:35;10.20;99.90
32470;DHT22;18925;48.356;10.864;2022-09-12T03:09:11;10.20;99.90
32470;DHT22;18925;48.356;10.864;2022-09-12T03:09:45;10.10;99.90
32470;DHT22;18925;48.356;10.864;2022-09-12T03:11:24;10.10;99.90
32470;DHT22;18925;48.356;10.864;2022-09-12T03:12:03;10.00;99.90
32470;DHT22;18925;48.356;10.864;2022-09-12T03:13:19;10.00;99.90
32470;DHT22;18925;48.356;10.864;2022-09-12T03:13:59;10.00;99.90
32470;DHT22;18925;48.356;10.864;2022-09-12T03:15:15;10.00;99.90
32470;DHT22;18925;48.356;10.864;2022-09-12T03:17:45;10.00;99.90
32470;DHT22;18925;48.356;10.864;2022-09-12T03:18:31;10.00;99.90
32470;DHT22;18925;48.356;10.864;2022-09-12T03:19:07;10.00;99.90
32470;DHT22;18925;48.356;10.864;2022-09-12T03:20:10;9.90;99.90
32470;DHT22;18925;48.356;10.864;2022-09-12T03:21:01;9.90;99.90
32470;DHT22;18925;48.356;10.864;2022-09-12T03:21:40;9.90;99.90
32470;DHT22;18925;48.356;10.864;2022-09-12T03:23:21;9.90;99.90
32470;DHT22;18925;48.356;10.864;2022-09-12T03:24:49;9.90;99.90
32470;DHT22;18925;48.356;10.864;2022-09-12T03:25:50;9.90;99.90
32470;DHT22;18925;48.356;10.864;2022-09-12T03:26:35;9.90;99.90
32470;DHT22;18925;48.356;10.864;2022-09-12T03:27:09;9.90;99.90
32470;DHT22;18925;48.356;10.864;2022-09-12T03:27:44;10.00;99.90
32470;DHT22;18925;48.356;10.864;2022-09-12T03:28:16;9.90;99.90
32470;DHT22;18925;48.356;10.864;2022-09-12T03:28:47;10.00;99.90
32470;DHT22;18925;48.356;10.864;2022-09-12T03:29:18;10.00;99.90
32470;DHT22;18925;48.356;10.864;2022-09-12T03:29:49;10.00;99.90
32470;DHT22;18925;48.356;10.864;2022-09-12T03:30:20;10.00;99.90
32470;DHT22;18925;48.356;10.864;2022-09-12T03:30:51;10.10;99.90
32470;DHT22;18925;48.356;10.864;2022-09-12T03:31:24;10.00;99.90
32470;DHT22;18925;48.356;10.864;2022-09-12T03:31:55;10.10;99.90
32470;DHT22;18925;48.356;10.864;2022-09-12T03:32:38;10.00;99.90
32470;DHT22;18925;48.356;10.864;2022-09-12T03:33:18;10.00;99.90
32470;DHT22;18925;48.356;10.864;2022-09-12T03:33:49;10.00;99.90
32470;DHT22;18925;48.356;10.864;2022-09-12T03:34:20;10.00;99.90
32470;DHT22;18925;48.356;10.864;2022-09-12T03:34:51;9.90;99.90
32470;DHT22;18925;48.356;10.864;2022-09-12T03:35:23;9.90;99.90
32470;DHT22;18925;48.356;10.864;2022-09-12T03:35:54;9.90;99.90
32470;DHT22;18925;48.356;10.864;2022-09-12T03:36:25;9.90;99.90
32470;DHT22;18925;48.356;10.864;2022-09-12T03:36:56;9.90;99.90
32470;DHT22;18925;48.356;10.864;2022-09-12T03:37:27;9.90;99.90
32470;DHT22;18925;48.356;10.864;2022-09-12T03:37:58;9.90;99.90
32470;DHT22;18925;48.356;10.864;2022-09-12T03:38:28;9.90;99.90
32470;DHT22;18925;48.356;10.864;2022-09-12T03:38:59;9.90;99.90
32470;DHT22;18925;48.356;10.864;2022-09-12T03:39:29;9.90;99.90
32470;DHT22;18925;48.356;10.864;2022-09-12T03:40:00;9.90;99.90
32470;DHT22;18925;48.356;10.864;2022-09-12T03:40:31;9.90;99.90
32470;DHT22;18925;48.356;10.864;2022-09-12T03:41:02;10.00;99.90
32470;DHT22;18925;48.356;10.864;2022-09-12T03:41:32;10.00;99.90
32470;DHT22;18925;48.356;10.864;2022-09-12T03:42:03;10.00;99.90
32470;DHT22;18925;48.356;10.864;2022-09-12T03:42:33;10.00;99.90
32470;DHT22;18925;48.356;10.864;2022-09-12T03:43:05;10.00;99.90
32470;DHT22;18925;48.356;10.864;2022-09-12T03:43:35;9.90;99.90
32470;DHT22;18925;48.356;10.864;2022-09-12T03:44:06;9.90;99.90
32470;DHT22;18925;48.356;10.864;2022-09-12T03:44:37;9.90;99.90
32470;DHT22;18925;48.356;10.864;2022-09-12T03:45:08;9.90;99.90
32470;DHT22;18925;48.356;10.864;2022-09-12T03:45:39;9.90;99.90
32470;DHT22;18925;48.356;10.864;2022-09-12T03:46:09;9.90;99.90
32470;DHT22;18925;48.356;10.864;2022-09-12T03:46:40;9.90;99.90
32470;DHT22;18925;48.356;10.864;2022-09-12T03:47:11;9.90;99.90
32470;DHT22;18925;48.356;10.864;2022-09-12T03:47:41;9.80;99.90
32470;DHT22;18925;48.356;10.864;2022-09-12T03:48:12;9.80;99.90
32470;DHT22;18925;48.356;10.864;2022-09-12T03:48:42;9.80;99.90
32470;DHT22;18925;48.356;10.864;2022-09-12T03:49:13;9.80;99.90
32470;DHT22;18925;48.356;10.864;2022-09-12T03:49:44;9.80;99.90
32470;DHT22;18925;48.356;10.864;2022-09-12T03:50:14;9.80;99.90
32470;DHT22;18925;48.356;10.864;2022-09-12T03:50:45;9.80;99.90
32470;DHT22;18925;48.356;10.864;2022-09-12T03:51:15;9.80;99.90
32470;DHT22;18925;48.356;10.864;2022-09-12T03:51:46;9.90;99.90
32470;DHT22;18925;48.356;10.864;2022-09-12T03:52:17;9.90;99.90
32470;DHT22;18925;48.356;10.864;2022-09-12T03:52:47;9.90;99.90
32470;DHT22;18925;48.356;10.864;2022-09-12T03:53:18;9.90;99.90
32470;DHT22;18925;48.356;10.864;2022-09-12T03:53:48;9.90;99.90
32470;DHT22;18925;48.356;10.864;2022-09-12T03:54:19;9.90;99.90
32470;DHT22;18925;48.356;10.864;2022-09-12T03:54:49;9.90;99.90
32470;DHT22;18925;48.356;10.864;2022-09-12T03:55:20;9.90;99.90
32470;DHT22;18925;48.356;10.864;2022-09-12T03:55:50;9.90;99.90
32470;DHT22;18925;48.356;10.864;2022-09-12T03:56:21;9.80;99.90
32470;DHT22;18925;48.356;10.864;2022-09-12T03:56:51;9.80;99.90
32470;DHT22;18925;48.356;10.864;2022-09-12T03:57:22;9.80;99.90
32470;DHT22;18925;48.356;10.864;2022-09-12T03:57:53;9.80;99.90
32470;DHT22;18925;48.356;10.864;2022-09-12T03:58:24;9.80;99.90
32470;DHT22;18925;48.356;10.864;2022-09-12T03:58:54;9.70;99.90
32470;DHT22;18925;48.356;10.864;2022-09-12T03:59:25;9.70;99.90
32470;DHT22;18925;48.356;10.864;2022-09-12T03:59:55;9.70;99.90
32470;DHT22;18925;48.356;10.864;2022-09-12T04:00:26;9.70;99.90
32470;DHT22;18925;48.356;10.864;2022-09-12T04:00:57;9.70;99.90
32470;DHT22;18925;48.356;10.864;2022-09-12T04:01:27;9.80;99.90
32470;DHT22;18925;48.356;10.864;2022-09-12T04:01:58;9.70;99.90
32470;DHT22;18925;48.356;10.864;2022-09-12T04:02:28;9.70;99.90
32470;DHT22;18925;48.356;10.864;2022-09-12T04:02:59;9.70;99.90
32470;DHT22;18925;48.356;10.864;2022-09-12T04:03:29;9.70;99.90
32470;DHT22;18925;48.356;10.864;2022-09-12T04:04:00;9.70;99.90
32470;DHT22;18925;48.356;10.864;2022-09-12T04:04:31;9.70;99.90
32470;DHT22;18925;48.356;10.864;2022-09-12T04:05:01;9.70;99.90